createdAt,value
2018-12-27T00:00:10.595Z,208.30
2018-12-27T00:02:18.376Z,180.23
2018-12-27T00:04:25.619Z,164.87
2018-12-27T00:06:34.717Z,182.20
2018-12-27T00:08:42.109Z,172.63
2018-12-27T00:10:49.259Z,179.60
2018-12-27T00:12:56.404Z,191.17
2018-12-27T00:15:03.588Z,157.87
2018-12-27T00:17:10.733Z,149.07
2018-12-27T00:19:17.846Z,138.57
2018-12-27T00:21:25.166Z,171.53
2018-12-27T00:23:32.248Z,151.50
2018-12-27T00:25:39.585Z,168.10
2018-12-27T00:27:46.578Z,181.03
2018-12-27T00:29:53.610Z,196.60
2018-12-27T00:32:01.098Z,173.20
2018-12-27T00:34:08.797Z,163.47
2018-12-27T00:36:16.447Z,185.70
2018-12-27T00:38:24.221Z,164.73
2018-12-27T00:40:31.254Z,181.10
2018-12-27T00:42:38.826Z,205.17
2018-12-27T00:44:46.504Z,206.33
2018-12-27T00:46:53.772Z,184.97
2018-12-27T00:49:01.262Z,185.67
2018-12-27T00:51:08.554Z,184.47
2018-12-27T00:53:16.175Z,198.50
2018-12-27T00:55:23.623Z,213.67
2018-12-27T00:57:30.801Z,212.57
2018-12-27T00:59:38.570Z,201.50
2018-12-27T01:01:46.801Z,181.17
2018-12-27T01:03:54.065Z,189.43
2018-12-27T01:06:01.301Z,163.37
2018-12-27T01:08:09.097Z,167.13
2018-12-27T01:10:16.251Z,159.70
2018-12-27T01:12:23.740Z,116.47
2018-12-27T01:14:31.455Z,83.07
2018-12-27T01:16:38.703Z,66.73
2018-12-27T01:18:45.817Z,58.17
2018-12-27T01:20:53.735Z,53.77
2018-12-27T01:23:01.554Z,63.07
2018-12-27T01:25:09.200Z,43.93
2018-12-27T01:27:18.151Z,79.80
2018-12-27T01:29:25.919Z,47.00
2018-12-27T01:31:36.028Z,39.43
2018-12-27T01:33:45.233Z,39.53
2018-12-27T01:35:52.632Z,49.03
2018-12-27T01:37:59.844Z,56.70
2018-12-27T01:40:07.262Z,68.23
2018-12-27T01:42:15.096Z,55.87
2018-12-27T01:44:26.405Z,59.03
2018-12-27T01:46:33.734Z,57.60
2018-12-27T01:48:40.995Z,78.80
2018-12-27T01:50:48.492Z,70.90
2018-12-27T01:52:55.688Z,72.53
2018-12-27T01:55:03.401Z,63.93
2018-12-27T01:57:10.646Z,95.47
2018-12-27T01:59:17.811Z,101.23
2018-12-27T02:01:25.174Z,92.87
2018-12-27T02:03:32.830Z,125.33
2018-12-27T02:05:40.565Z,146.03
2018-12-27T02:07:47.726Z,131.87
2018-12-27T02:09:55.205Z,135.23
2018-12-27T02:12:04.052Z,141.07
2018-12-27T02:14:11.498Z,140.87
2018-12-27T02:16:18.865Z,136.13
2018-12-27T02:18:26.576Z,144.57
2018-12-27T02:20:33.994Z,139.87
2018-12-27T02:22:41.230Z,141.20
2018-12-27T02:24:48.453Z,138.80
2018-12-27T02:26:56.298Z,149.40
2018-12-27T02:29:03.599Z,151.43
2018-12-27T02:31:11.797Z,147.13
2018-12-27T02:33:19.301Z,154.13
2018-12-27T02:35:26.668Z,156.17
2018-12-27T02:37:34.127Z,162.23
2018-12-27T02:39:41.435Z,172.23
2018-12-27T02:41:48.736Z,162.67
2018-12-27T02:43:55.980Z,176.40
2018-12-27T02:46:03.290Z,153.50
2018-12-27T02:48:10.798Z,147.30
2018-12-27T02:50:18.718Z,127.47
2018-12-27T02:52:27.215Z,107.17
2018-12-27T02:54:34.325Z,106.17
2018-12-27T02:56:41.716Z,95.07
2018-12-27T02:58:49.149Z,101.77
2018-12-27T03:00:56.448Z,90.40
2018-12-27T03:03:05.288Z,98.83
2018-12-27T03:05:13.126Z,103.23
2018-12-27T03:07:20.171Z,108.00
2018-12-27T03:09:27.681Z,117.27
2018-12-27T03:11:35.126Z,119.77
2018-12-27T03:13:42.197Z,107.07
2018-12-27T03:15:49.464Z,110.03
2018-12-27T03:17:56.417Z,112.43
2018-12-27T03:20:03.540Z,115.83
2018-12-27T03:22:12.383Z,113.97
2018-12-27T03:24:19.725Z,125.33
2018-12-27T03:26:27.116Z,117.20
2018-12-27T03:28:34.914Z,126.07
2018-12-27T03:30:41.857Z,113.90
2018-12-27T03:32:49.281Z,123.90
2018-12-27T03:34:57.222Z,121.93
2018-12-27T03:37:07.595Z,128.93
2018-12-27T03:39:14.814Z,139.40
2018-12-27T03:41:22.029Z,129.73
2018-12-27T03:43:29.287Z,129.73
2018-12-27T03:45:38.108Z,137.20
2018-12-27T03:47:45.818Z,132.23
2018-12-27T03:49:52.754Z,125.23
2018-12-27T03:52:00.222Z,115.37
2018-12-27T03:54:08.553Z,111.50
2018-12-27T03:56:16.832Z,103.30
2018-12-27T03:58:24.551Z,102.20
2018-12-27T04:00:32.932Z,95.00
2018-12-27T04:02:40.836Z,108.33
2018-12-27T04:04:48.425Z,90.23
2018-12-27T04:06:57.066Z,91.50
2018-12-27T04:09:04.833Z,94.40
2018-12-27T04:11:11.917Z,113.17
2018-12-27T04:13:20.004Z,119.37
2018-12-27T04:15:27.359Z,113.27
2018-12-27T04:17:34.602Z,114.90
2018-12-27T04:19:42.150Z,129.30
2018-12-27T04:21:49.262Z,119.50
2018-12-27T04:23:57.076Z,115.37
2018-12-27T04:26:04.955Z,118.33
2018-12-27T04:28:13.773Z,124.10
2018-12-27T04:30:20.879Z,130.80
2018-12-27T04:32:28.675Z,125.83
2018-12-27T04:34:37.834Z,140.13
2018-12-27T04:36:46.390Z,142.30
2018-12-27T04:38:53.853Z,146.70
2018-12-27T04:41:01.285Z,132.03
2018-12-27T04:43:11.247Z,143.00
2018-12-27T04:45:18.349Z,149.40
2018-12-27T04:47:26.321Z,149.40
2018-12-27T04:49:33.751Z,137.83
2018-12-27T04:51:41.032Z,120.53
2018-12-27T04:56:01.969Z,102.47
2018-12-27T04:58:09.265Z,116.83
2018-12-27T05:00:16.615Z,112.77
2018-12-27T05:02:23.646Z,115.60
2018-12-27T05:04:30.895Z,116.70
2018-12-27T05:06:39.072Z,108.80
2018-12-27T05:08:46.584Z,94.30
2018-12-27T05:10:53.799Z,110.50
2018-12-27T05:13:01.402Z,142.83
2018-12-27T05:15:08.888Z,136.60
2018-12-27T05:17:16.255Z,141.93
2018-12-27T05:19:23.566Z,132.37
2018-12-27T05:21:31.136Z,129.30
2018-12-27T05:23:38.632Z,133.77
2018-12-27T05:25:45.888Z,98.80
2018-12-27T05:27:54.106Z,81.50
2018-12-27T05:30:01.429Z,100.53
2018-12-27T05:32:08.908Z,117.00
2018-12-27T05:34:15.958Z,116.73
2018-12-27T05:36:23.526Z,122.47
2018-12-27T05:38:30.643Z,108.90
2018-12-27T05:40:38.107Z,128.53
2018-12-27T05:42:45.421Z,127.53
2018-12-27T05:44:52.723Z,124.47
2018-12-27T05:47:00.044Z,118.40
2018-12-27T05:49:08.212Z,125.37
2018-12-27T05:51:15.601Z,150.30
2018-12-27T05:53:23.007Z,138.10
2018-12-27T05:55:34.313Z,142.33
2018-12-27T05:57:38.659Z,123.17
2018-12-27T05:59:46.135Z,139.57
2018-12-27T06:01:52.899Z,123.10
2018-12-27T06:04:00.253Z,134.40
2018-12-27T06:06:07.416Z,145.37
2018-12-27T06:08:14.553Z,156.27
2018-12-27T06:10:21.458Z,144.57
2018-12-27T06:12:29.661Z,150.30
2018-12-27T06:14:36.428Z,129.77
2018-12-27T06:16:43.537Z,124.20
2018-12-27T06:18:51.190Z,118.97
2018-12-27T06:20:58.571Z,133.03
2018-12-27T06:23:05.774Z,136.60
2018-12-27T06:25:13.006Z,119.90
2018-12-27T06:27:20.312Z,120.00
2018-12-27T06:29:27.427Z,106.07
2018-12-27T06:31:34.637Z,114.57
2018-12-27T06:33:41.966Z,98.00
2018-12-27T06:35:49.226Z,94.70
2018-12-27T06:37:56.162Z,113.37
2018-12-27T06:40:03.700Z,129.57
2018-12-27T06:42:10.891Z,124.40
2018-12-27T06:44:18.291Z,132.63
2018-12-27T06:46:25.553Z,132.10
2018-12-27T06:48:32.649Z,147.20
2018-12-27T06:50:39.911Z,144.73
2018-12-27T06:52:47.005Z,147.63
2018-12-27T06:54:54.146Z,151.57
2018-12-27T06:57:01.222Z,140.63
2018-12-27T06:59:08.594Z,141.93
2018-12-27T07:01:15.809Z,149.67
2018-12-27T07:03:22.912Z,155.20
2018-12-27T07:05:30.078Z,140.33
2018-12-27T07:07:37.153Z,162.37
2018-12-27T07:09:44.454Z,171.77
2018-12-27T07:12:00.142Z,147.73
2018-12-27T07:14:07.518Z,142.40
2018-12-27T07:16:15.113Z,135.13
2018-12-27T07:18:22.235Z,141.73
2018-12-27T07:20:30.135Z,157.97
2018-12-27T07:22:37.195Z,119.47
2018-12-27T07:24:44.554Z,127.07
2018-12-27T07:26:51.746Z,110.63
2018-12-27T07:28:58.866Z,137.47
2018-12-27T07:31:06.226Z,116.53
2018-12-27T07:33:13.489Z,102.33
2018-12-27T07:35:21.122Z,94.63
2018-12-27T07:37:28.451Z,109.77
2018-12-27T07:39:35.660Z,87.57
2018-12-27T07:41:42.912Z,108.27
2018-12-27T07:43:51.551Z,127.57
2018-12-27T07:45:58.710Z,144.00
2018-12-27T07:48:06.105Z,128.03
2018-12-27T07:50:13.763Z,140.30
2018-12-27T07:52:20.868Z,153.07
2018-12-27T07:54:28.126Z,137.93
2018-12-27T07:56:35.452Z,156.70
2018-12-27T07:58:42.749Z,146.37
2018-12-27T08:00:50.132Z,158.07
2018-12-27T08:02:57.019Z,141.13
2018-12-27T08:05:04.614Z,162.17
2018-12-27T08:07:12.542Z,152.93
2018-12-27T08:09:21.117Z,159.80
2018-12-27T08:11:28.732Z,161.70
2018-12-27T08:13:35.868Z,150.33
2018-12-27T08:15:43.515Z,136.57
2018-12-27T08:17:50.662Z,149.00
2018-12-27T08:19:57.989Z,160.83
2018-12-27T08:22:05.440Z,172.57
2018-12-27T08:24:12.557Z,141.30
2018-12-27T08:26:19.793Z,128.33
2018-12-27T08:28:27.354Z,150.23
2018-12-27T08:30:35.054Z,104.23
2018-12-27T08:32:42.272Z,115.50
2018-12-27T08:34:49.624Z,101.20
2018-12-27T08:36:57.039Z,113.43
2018-12-27T08:39:04.908Z,108.57
2018-12-27T08:41:13.006Z,99.07
2018-12-27T08:43:20.262Z,96.57
2018-12-27T08:45:27.802Z,99.47
2018-12-27T08:47:34.973Z,115.43
2018-12-27T08:49:42.260Z,133.97
2018-12-27T08:51:49.689Z,139.67
2018-12-27T08:53:57.074Z,149.37
2018-12-27T08:56:04.024Z,150.47
2018-12-27T08:58:11.882Z,151.67
2018-12-27T09:00:19.814Z,159.63
2018-12-27T09:02:27.600Z,167.17
2018-12-27T09:04:34.682Z,168.73
2018-12-27T09:06:42.745Z,157.37
2018-12-27T09:08:50.075Z,166.87
2018-12-27T09:10:58.757Z,171.23
2018-12-27T09:13:05.957Z,150.23
2018-12-27T09:15:13.964Z,148.10
2018-12-27T09:17:21.166Z,151.30
2018-12-27T09:19:28.309Z,139.43
2018-12-27T09:21:36.143Z,134.43
2018-12-27T09:23:43.995Z,130.90
2018-12-27T09:25:51.791Z,144.60
2018-12-27T09:27:58.612Z,138.33
2018-12-27T09:30:05.996Z,174.60
2018-12-27T09:32:13.187Z,173.00
2018-12-27T09:34:20.354Z,173.00
2018-12-27T09:36:27.339Z,137.57
2018-12-27T09:38:34.613Z,129.97
2018-12-27T09:40:42.211Z,121.40
2018-12-27T09:42:49.336Z,118.20
2018-12-27T09:44:57.302Z,106.10
2018-12-27T09:47:04.465Z,122.10
2018-12-27T09:49:12.681Z,115.37
2018-12-27T09:51:19.828Z,97.97
2018-12-27T09:53:27.046Z,101.73
2018-12-27T09:55:34.225Z,118.73
2018-12-27T09:57:41.407Z,139.77
2018-12-27T09:59:48.687Z,114.97
2018-12-27T10:01:55.766Z,157.90
2018-12-27T10:04:03.585Z,140.23
2018-12-27T10:06:10.916Z,142.10
2018-12-27T10:08:17.955Z,166.03
2018-12-27T10:10:25.108Z,143.73
2018-12-27T10:12:33.118Z,147.37
2018-12-27T10:14:40.321Z,158.50
2018-12-27T10:16:48.337Z,146.20
2018-12-27T10:18:55.621Z,152.93
2018-12-27T10:21:02.839Z,137.47
2018-12-27T10:23:10.576Z,148.10
2018-12-27T10:25:17.684Z,153.23
2018-12-27T10:27:25.484Z,150.53
2018-12-27T10:29:32.670Z,141.43
2018-12-27T10:31:40.013Z,143.63
2018-12-27T10:33:47.123Z,154.70
2018-12-27T10:35:54.240Z,180.17
2018-12-27T10:38:01.517Z,174.20
2018-12-27T10:40:11.631Z,164.07
2018-12-27T10:42:18.852Z,171.97
2018-12-27T10:44:26.092Z,180.00
2018-12-27T10:46:33.249Z,165.67
2018-12-27T10:48:40.642Z,140.17
2018-12-27T10:50:47.893Z,179.67
2018-12-27T10:52:54.930Z,168.53
2018-12-27T10:55:02.379Z,169.13
2018-12-27T10:57:10.788Z,151.27
2018-12-27T10:59:17.929Z,120.87
2018-12-27T11:01:25.237Z,112.30
2018-12-27T11:03:32.284Z,125.10
2018-12-27T11:05:39.542Z,124.13
2018-12-27T11:07:46.927Z,116.03
2018-12-27T11:09:54.309Z,121.50
2018-12-27T11:12:01.827Z,121.90
2018-12-27T11:14:08.884Z,110.23
2018-12-27T11:16:16.091Z,105.20
2018-12-27T11:18:23.594Z,127.17
2018-12-27T11:20:31.150Z,141.33
2018-12-27T11:22:38.556Z,148.30
2018-12-27T11:24:45.504Z,135.43
2018-12-27T11:26:52.781Z,143.60
2018-12-27T11:29:00.813Z,127.37
2018-12-27T11:31:07.808Z,159.53
2018-12-27T11:33:15.455Z,150.10
2018-12-27T11:35:22.679Z,160.53
2018-12-27T11:37:29.970Z,168.97
2018-12-27T11:39:37.287Z,155.03
2018-12-27T11:41:44.254Z,177.67
2018-12-27T11:43:51.536Z,169.07
2018-12-27T11:45:58.910Z,160.93
2018-12-27T11:48:05.964Z,163.63
2018-12-27T11:50:13.186Z,164.00
2018-12-27T11:52:21.170Z,185.73
2018-12-27T11:54:28.420Z,185.70
2018-12-27T11:56:35.436Z,175.63
2018-12-27T11:58:42.631Z,198.97
2018-12-27T12:00:49.922Z,175.67
2018-12-27T12:02:56.935Z,154.90
2018-12-27T12:05:04.287Z,125.10
2018-12-27T12:07:11.560Z,131.23
2018-12-27T12:09:18.645Z,134.07
2018-12-27T12:11:25.880Z,129.60
2018-12-27T12:13:33.106Z,119.67
2018-12-27T12:15:41.035Z,114.50
2018-12-27T12:17:48.407Z,129.10
2018-12-27T12:19:55.743Z,117.00
2018-12-27T12:22:03.121Z,173.93
2018-12-27T12:24:10.382Z,149.43
2018-12-27T12:26:17.681Z,152.17
2018-12-27T12:28:25.125Z,154.00
2018-12-27T12:30:31.900Z,154.67
2018-12-27T12:32:39.143Z,196.17
2018-12-27T12:34:46.703Z,186.47
2018-12-27T12:36:54.427Z,147.93
2018-12-27T12:39:01.655Z,121.40
2018-12-27T12:41:08.853Z,134.07
2018-12-27T12:43:16.134Z,114.40
2018-12-27T12:45:23.380Z,112.83
2018-12-27T12:47:30.523Z,118.17
2018-12-27T12:49:38.612Z,116.63
2018-12-27T12:51:45.683Z,114.17
2018-12-27T12:53:52.897Z,115.40
2018-12-27T12:56:00.054Z,107.27
2018-12-27T12:58:07.404Z,103.70
2018-12-27T13:00:15.136Z,108.77
2018-12-27T13:02:22.419Z,113.50
2018-12-27T13:04:29.761Z,100.83
2018-12-27T13:06:36.827Z,102.43
2018-12-27T13:08:45.142Z,93.97
2018-12-27T13:10:52.166Z,110.93
2018-12-27T13:13:00.059Z,93.27
2018-12-27T13:15:07.525Z,86.60
2018-12-27T13:17:14.727Z,73.73
2018-12-27T13:19:21.990Z,71.37
2018-12-27T13:21:29.574Z,68.83
2018-12-27T13:23:36.650Z,64.03
2018-12-27T13:25:44.498Z,60.47
2018-12-27T13:27:51.679Z,62.70
2018-12-27T13:29:59.054Z,65.90
2018-12-27T13:32:06.480Z,57.37
2018-12-27T13:34:13.570Z,53.17
2018-12-27T13:36:25.362Z,50.23
2018-12-27T13:38:29.778Z,49.17
2018-12-27T13:40:36.983Z,44.53
2018-12-27T13:42:44.176Z,44.93
2018-12-27T13:44:51.471Z,45.83
2018-12-27T13:46:58.551Z,45.67
2018-12-27T13:49:05.744Z,44.87
2018-12-27T13:51:12.989Z,38.80
2018-12-27T13:53:20.440Z,39.33
2018-12-27T13:55:27.511Z,36.03
2018-12-27T13:57:34.890Z,37.50
2018-12-27T13:59:42.074Z,39.70
2018-12-27T14:01:49.256Z,33.87
2018-12-27T14:03:56.259Z,35.20
2018-12-27T14:06:03.680Z,38.40
2018-12-27T14:08:10.695Z,35.23
2018-12-27T14:10:17.807Z,37.27
2018-12-27T14:12:24.976Z,35.40
2018-12-27T14:14:52.801Z,34.37
2018-12-27T14:17:24.972Z,34.73
2018-12-27T14:19:33.435Z,33.53
2018-12-27T14:22:15.979Z,32.53
2018-12-27T14:26:55.354Z,31.47
2018-12-27T14:29:03.054Z,29.30
2018-12-27T14:31:10.554Z,30.07
2018-12-27T14:33:17.964Z,25.87
2018-12-27T14:35:25.602Z,25.43
2018-12-27T14:37:33.424Z,24.00
2018-12-27T14:39:40.602Z,25.97
2018-12-27T14:41:48.361Z,27.27
2018-12-27T14:43:55.875Z,24.83
2018-12-27T14:46:03.554Z,22.87
2018-12-27T14:48:11.489Z,24.90
2018-12-27T14:50:18.643Z,26.37
2018-12-27T14:52:26.578Z,21.73
2018-12-27T14:54:34.475Z,23.70
2018-12-27T14:56:41.809Z,25.27
2018-12-27T14:58:50.407Z,24.00
2018-12-27T15:00:57.581Z,23.80
2018-12-27T15:03:04.719Z,24.37
2018-12-27T15:05:13.627Z,19.90
2018-12-27T15:07:21.038Z,22.27
2018-12-27T15:09:28.109Z,19.83
2018-12-27T15:11:35.284Z,21.87
2018-12-27T15:13:42.439Z,21.67
2018-12-27T15:15:49.401Z,21.40
2018-12-27T15:17:56.402Z,20.07
2018-12-27T15:20:04.745Z,20.77
2018-12-27T15:22:12.406Z,17.63
2018-12-27T15:24:20.047Z,18.73
2018-12-27T15:26:27.499Z,34.90
2018-12-27T15:28:34.202Z,54.70
2018-12-27T15:30:40.974Z,67.03
2018-12-27T15:32:48.430Z,49.40
2018-12-27T15:34:55.588Z,43.47
2018-12-27T15:37:02.281Z,43.93
